Terminal Aerodrome Forecast
Issued by NWS

Home | Current Version | Previous Version | Text Only | Print | Product List | Glossary On
Versions: 1 2 3 4 5 6 7 8 9 10 11 12 13 14 15
000
FTUS46 KMTR 310534
TAFSNS
TAF
KSNS 310534Z 3106/0106 29005KT 6SM FU BR OVC005
     FM310900 VRB03KT 4SM FU BR OVC002
     FM311500 VRB03KT 5SM FU BR OVC007
     FM311730 28005KT 6SM FU HZ SCT009 SCT015
     FM312000 29012KT 6SM FU HZ SCT012
     FM010300 29008KT 6SM FU HZ BKN007=

USA.gov is the U.S. government's official web portal to all federal, state and local government web resources and services.